Time;durP1;ratioP1;P1;durP2;ratioP2;P2;SDS_P1;SDS_P2;PMS_P1;PMS_P2;Temp;Humidity;BMP_temperature;BMP_pressure;BME280_temperature;BME280_humidity;BME280_pressure;Samples;Min_cycle;Max_cycle;Signal;HPM_P1;HPM_P2
2021/12/18 00:01:01;;;;;;;12.05;2.10;;;;;;;;;;5146710;27;20064;-60
2021/12/18 00:03:28;;;;;;;12.48;2.60;;;;;;;;;;5144177;27;20048;-60
2021/12/18 00:05:54;;;;;;;10.65;2.78;;;;;;;;;;5143734;27;20537;-60
2021/12/18 00:08:20;;;;;;;13.63;2.80;;;;;;;;;;5148126;27;20136;-60
2021/12/18 00:10:46;;;;;;;14.75;2.83;;;;;;;;;;5130039;27;20095;-60
2021/12/18 00:13:13;;;;;;;35.97;3.28;;;;;;;;;;5147885;27;20054;-60
2021/12/18 00:15:39;;;;;;;13.73;2.55;;;;;;;;;;5147756;27;20043;-60
2021/12/18 00:18:05;;;;;;;22.70;2.25;;;;;;;;;;5147304;27;20043;-60
2021/12/18 00:20:31;;;;;;;15.13;2.85;;;;;;;;;;5147574;27;20372;-60
2021/12/18 00:22:58;;;;;;;17.73;2.50;;;;;;;;;;5148802;27;20050;-60
2021/12/18 00:25:24;;;;;;;15.00;2.75;;;;;;;;;;5148912;27;20039;-60
2021/12/18 00:27:51;;;;;;;12.00;2.20;;;;;;;;;;5148154;27;20043;-61
2021/12/18 00:30:18;;;;;;;14.63;2.05;;;;;;;;;;5148821;27;20067;-60
2021/12/18 00:32:44;;;;;;;25.97;2.87;;;;;;;;;;5148604;27;20043;-60
2021/12/18 00:35:10;;;;;;;28.52;2.65;;;;;;;;;;5147584;27;20803;-59
2021/12/18 00:37:36;;;;;;;25.00;2.90;;;;;;;;;;5148843;27;20051;-59
2021/12/18 00:40:08;;;;;;;25.70;2.45;;;;;;;;;;5148025;27;20050;-59
2021/12/18 00:42:48;;;;;;;27.45;2.63;;;;;;;;;;5148407;27;20055;-60
2021/12/18 00:45:16;;;;;;;18.33;2.67;;;;;;;;;;5148726;27;20036;-60
2021/12/18 00:47:42;;;;;;;54.15;5.65;;;;;;;;;;5148479;27;20043;-60
2021/12/18 00:50:10;;;;;;;14.88;2.63;;;;;;;;;;5147935;27;20474;-60
2021/12/18 00:52:36;;;;;;;25.08;2.20;;;;;;;;;;5148446;27;20039;-59
2021/12/18 00:55:03;;;;;;;22.48;2.70;;;;;;;;;;5148402;27;20130;-59
2021/12/18 00:57:29;;;;;;;32.50;3.30;;;;;;;;;;5148228;27;20043;-60
2021/12/18 01:00:00;;;;;;;26.90;2.40;;;;;;;;;;5148248;27;20122;-60
2021/12/18 01:02:27;;;;;;;36.08;2.70;;;;;;;;;;5148302;27;20046;-61
2021/12/18 01:04:54;;;;;;;46.33;2.78;;;;;;;;;;5148433;27;20039;-60
2021/12/18 01:07:20;;;;;;;31.73;3.65;;;;;;;;;;5147456;27;20039;-59
2021/12/18 01:12:30;;;;;;;21.88;2.50;;;;;;;;;;5147737;27;20059;-61
2021/12/18 01:15:15;;;;;;;16.83;2.05;;;;;;;;;;5147951;27;20469;-60
2021/12/18 01:23:11;;;;;;;18.27;1.83;;;;;;;;;;5147971;27;20692;-60
2021/12/18 01:25:38;;;;;;;24.55;1.95;;;;;;;;;;5148190;27;20437;-59
2021/12/18 01:28:04;;;;;;;21.15;1.90;;;;;;;;;;5129433;27;20051;-60
2021/12/18 01:30:30;;;;;;;11.73;1.45;;;;;;;;;;5147723;27;20046;-60
2021/12/18 01:32:56;;;;;;;10.70;1.17;;;;;;;;;;5147799;27;20098;-59
2021/12/18 01:35:23;;;;;;;31.80;1.83;;;;;;;;;;5146681;27;20134;-60
2021/12/18 01:37:50;;;;;;;19.70;1.88;;;;;;;;;;5147612;27;20343;-60
2021/12/18 01:40:17;;;;;;;20.42;2.30;;;;;;;;;;5147876;27;20051;-60
2021/12/18 01:45:39;;;;;;;17.85;1.95;;;;;;;;;;5147257;27;20072;-60
2021/12/18 01:53:35;;;;;;;16.60;1.90;;;;;;;;;;5147420;27;20057;-61
2021/12/18 01:56:01;;;;;;;19.65;2.67;;;;;;;;;;5147098;27;20049;-61
2021/12/18 01:58:28;;;;;;;38.58;4.65;;;;;;;;;;5147240;27;20050;-61
2021/12/18 02:00:55;;;;;;;24.42;3.08;;;;;;;;;;5147346;27;20476;-60
2021/12/18 02:03:22;;;;;;;77.38;7.03;;;;;;;;;;5147326;27;20042;-60
2021/12/18 02:05:48;;;;;;;21.92;3.65;;;;;;;;;;5146171;27;20039;-59
2021/12/18 02:08:18;;;;;;;17.90;3.00;;;;;;;;;;5147088;27;20044;-60
2021/12/18 02:10:56;;;;;;;14.20;3.35;;;;;;;;;;5141256;27;20047;-60
2021/12/18 02:21:34;;;;;;;8.45;1.77;;;;;;;;;;5146545;27;20043;-60
2021/12/18 02:24:00;;;;;;;13.50;2.40;;;;;;;;;;5145739;27;20051;-60
2021/12/18 02:26:27;;;;;;;13.07;2.20;;;;;;;;;;5146247;27;20118;-60
2021/12/18 02:28:56;;;;;;;12.35;1.88;;;;;;;;;;5146294;27;20103;-59
2021/12/18 02:31:22;;;;;;;13.20;2.03;;;;;;;;;;5146507;27;20039;-59
2021/12/18 02:33:49;;;;;;;27.52;2.13;;;;;;;;;;5146448;27;20521;-60
2021/12/18 02:36:22;;;;;;;14.50;1.25;;;;;;;;;;5146154;27;20039;-60
2021/12/18 02:43:51;;;;;;;24.05;1.92;;;;;;;;;;5146278;27;20129;-59
2021/12/18 02:46:20;;;;;;;19.30;2.15;;;;;;;;;;5145989;27;20066;-60
2021/12/18 02:48:47;;;;;;;35.85;2.20;;;;;;;;;;5146455;27;20043;-60
2021/12/18 02:51:13;;;;;;;28.63;2.22;;;;;;;;;;5145507;27;20039;-60
2021/12/18 02:53:42;;;;;;;10.48;1.80;;;;;;;;;;5146195;27;20047;-59
2021/12/18 02:56:12;;;;;;;6.80;1.60;;;;;;;;;;5145531;27;20071;-59
2021/12/18 02:58:42;;;;;;;15.15;2.22;;;;;;;;;;5145501;27;20050;-60
2021/12/18 03:01:09;;;;;;;18.15;1.80;;;;;;;;;;5145860;27;20043;-60
2021/12/18 03:03:39;;;;;;;12.48;1.50;;;;;;;;;;5145487;27;20112;-60
2021/12/18 03:24:56;;;;;;;10.82;2.47;;;;;;;;;;5145589;27;20039;-60
2021/12/18 03:27:22;;;;;;;15.73;2.75;;;;;;;;;;5145535;27;20092;-60
2021/12/18 03:29:49;;;;;;;9.48;2.20;;;;;;;;;;5145864;27;20039;-59
2021/12/18 03:32:15;;;;;;;9.73;2.33;;;;;;;;;;5145417;27;20043;-59
2021/12/18 03:34:42;;;;;;;8.27;2.10;;;;;;;;;;5144989;27;20058;-59
2021/12/18 03:37:08;;;;;;;16.83;2.08;;;;;;;;;;5144706;27;20130;-59
2021/12/18 03:39:35;;;;;;;12.68;1.77;;;;;;;;;;5145306;27;20551;-60
2021/12/18 03:42:01;;;;;;;9.77;2.47;;;;;;;;;;5145587;28;20104;-60
2021/12/18 03:44:28;;;;;;;12.73;2.75;;;;;;;;;;5145751;28;20580;-59
2021/12/18 03:46:55;;;;;;;14.05;2.38;;;;;;;;;;5145154;28;20073;-59
2021/12/18 03:49:21;;;;;;;14.75;3.03;;;;;;;;;;5145301;28;20066;-60
2021/12/18 03:51:47;;;;;;;13.75;3.22;;;;;;;;;;5144772;28;20047;-60
2021/12/18 03:54:13;;;;;;;11.82;2.63;;;;;;;;;;5144986;28;20165;-59
2021/12/18 03:56:39;;;;;;;12.25;2.78;;;;;;;;;;5145349;28;20043;-59
2021/12/18 03:59:05;;;;;;;17.00;2.95;;;;;;;;;;5145668;28;20056;-59
2021/12/18 04:01:31;;;;;;;14.35;2.97;;;;;;;;;;5145228;28;20290;-58
2021/12/18 04:03:58;;;;;;;13.77;2.95;;;;;;;;;;5145191;28;20518;-59
2021/12/18 04:06:24;;;;;;;15.23;2.78;;;;;;;;;;5144375;28;20557;-59
2021/12/18 04:08:50;;;;;;;20.25;3.67;;;;;;;;;;5145344;28;20070;-59
2021/12/18 04:11:16;;;;;;;14.77;3.03;;;;;;;;;;5145498;28;20047;-59
2021/12/18 04:13:45;;;;;;;19.52;3.97;;;;;;;;;;5145179;28;20043;-60
2021/12/18 04:16:12;;;;;;;18.70;3.95;;;;;;;;;;5145179;28;20324;-59
2021/12/18 04:18:38;;;;;;;18.77;4.43;;;;;;;;;;5126222;28;20043;-60
2021/12/18 04:21:04;;;;;;;12.27;4.13;;;;;;;;;;5144271;28;20388;-60
2021/12/18 04:23:30;;;;;;;24.15;5.57;;;;;;;;;;5145181;28;20070;-59
2021/12/18 04:25:56;;;;;;;17.30;5.07;;;;;;;;;;5145245;28;20053;-59
2021/12/18 04:28:23;;;;;;;20.00;4.55;;;;;;;;;;5145144;28;20079;-60
2021/12/18 04:30:49;;;;;;;20.40;4.72;;;;;;;;;;5144915;28;20409;-60
2021/12/18 04:33:15;;;;;;;18.33;4.95;;;;;;;;;;5144868;28;20039;-59
2021/12/18 04:35:42;;;;;;;27.38;5.80;;;;;;;;;;5144083;28;20128;-59
2021/12/18 04:38:08;;;;;;;24.42;5.30;;;;;;;;;;5144882;28;20140;-59
2021/12/18 04:40:35;;;;;;;24.52;5.63;;;;;;;;;;5126730;28;20077;-59
2021/12/18 04:43:01;;;;;;;20.83;5.40;;;;;;;;;;5144940;28;20047;-59
2021/12/18 04:45:28;;;;;;;24.58;5.25;;;;;;;;;;5144579;28;20123;-59
2021/12/18 04:47:55;;;;;;;25.33;5.80;;;;;;;;;;5147001;27;20077;-60
2021/12/18 04:50:22;;;;;;;;;;;;;;;;;;5148203;27;20185;-59
2021/12/18 04:52:48;;;;;;;30.40;5.18;;;;;;;;;;5149025;27;19964;-60
2021/12/18 04:55:15;;;;;;;25.40;5.30;;;;;;;;;;5148516;27;20051;-59
2021/12/18 04:57:41;;;;;;;28.00;5.18;;;;;;;;;;5147894;27;20078;-60
2021/12/18 05:00:08;;;;;;;25.40;5.85;;;;;;;;;;5129177;27;20087;-59
2021/12/18 05:02:38;;;;;;;24.73;6.20;;;;;;;;;;5148602;27;20077;-60
2021/12/18 05:05:05;;;;;;;22.75;5.95;;;;;;;;;;5147552;27;20126;-59
2021/12/18 05:07:32;;;;;;;29.20;5.82;;;;;;;;;;5148410;27;20066;-59
2021/12/18 05:09:58;;;;;;;27.20;5.70;;;;;;;;;;5147962;27;20068;-59
2021/12/18 05:12:24;;;;;;;29.30;6.03;;;;;;;;;;5148103;27;20059;-60
2021/12/18 05:14:50;;;;;;;25.88;5.80;;;;;;;;;;5148000;27;20172;-59
2021/12/18 05:17:16;;;;;;;33.15;6.15;;;;;;;;;;5147893;27;20047;-59
2021/12/18 05:19:43;;;;;;;24.88;5.75;;;;;;;;;;5129424;27;20058;-60
2021/12/18 05:22:09;;;;;;;25.48;6.28;;;;;;;;;;5147770;27;20043;-60
2021/12/18 05:24:36;;;;;;;28.17;6.35;;;;;;;;;;5148079;27;20367;-59
2021/12/18 05:27:02;;;;;;;27.88;6.13;;;;;;;;;;5147765;27;20102;-59
2021/12/18 05:29:28;;;;;;;23.52;5.30;;;;;;;;;;5147637;27;20050;-60
2021/12/18 05:31:54;;;;;;;27.58;6.60;;;;;;;;;;5147824;27;20039;-58
2021/12/18 05:34:23;;;;;;;30.25;5.82;;;;;;;;;;5148129;27;20043;-59
2021/12/18 05:39:23;;;;;;;27.70;6.28;;;;;;;;;;5147487;27;20051;-59
2021/12/18 05:41:50;;;;;;;23.10;5.80;;;;;;;;;;5147357;27;20121;-60
2021/12/18 05:44:17;;;;;;;29.25;6.85;;;;;;;;;;5147510;27;20111;-59
2021/12/18 05:46:44;;;;;;;23.55;6.18;;;;;;;;;;5147280;27;20085;-59
2021/12/18 05:49:10;;;;;;;22.67;5.90;;;;;;;;;;5147852;27;20414;-60
2021/12/18 05:51:37;;;;;;;30.70;7.25;;;;;;;;;;5146983;27;20043;-59
2021/12/18 05:54:03;;;;;;;17.65;5.40;;;;;;;;;;5147046;27;20054;-60
2021/12/18 05:56:29;;;;;;;28.92;6.80;;;;;;;;;;5147289;27;20143;-60
2021/12/18 05:58:56;;;;;;;29.83;6.43;;;;;;;;;;5146995;27;20050;-59
2021/12/18 06:01:22;;;;;;;31.92;6.72;;;;;;;;;;5147158;27;20042;-60
2021/12/18 06:03:48;;;;;;;28.80;7.05;;;;;;;;;;5147586;27;20043;-60
2021/12/18 06:06:15;;;;;;;28.77;6.55;;;;;;;;;;5146312;27;20043;-59
2021/12/18 06:08:42;;;;;;;30.40;6.30;;;;;;;;;;5146724;27;20498;-59
2021/12/18 06:11:14;;;;;;;26.63;6.18;;;;;;;;;;5146947;27;20076;-59
2021/12/18 06:13:44;;;;;;;31.98;7.03;;;;;;;;;;5146896;27;20074;-60
2021/12/18 06:16:10;;;;;;;29.00;6.38;;;;;;;;;;5146930;27;20126;-59
2021/12/18 06:18:40;;;;;;;21.75;6.95;;;;;;;;;;5147079;27;20102;-61
2021/12/18 06:21:06;;;;;;;26.60;6.10;;;;;;;;;;5127508;27;20051;-59
2021/12/18 06:23:32;;;;;;;34.63;7.22;;;;;;;;;;5146399;27;20099;-59
2021/12/18 06:25:59;;;;;;;36.50;7.63;;;;;;;;;;5146675;27;20044;-61
2021/12/18 06:28:25;;;;;;;27.35;6.90;;;;;;;;;;5146817;27;20110;-59
2021/12/18 06:30:51;;;;;;;19.95;6.18;;;;;;;;;;5146563;27;20058;-59
2021/12/18 06:33:18;;;;;;;22.55;6.97;;;;;;;;;;5146786;27;20490;-60
2021/12/18 06:35:44;;;;;;;24.48;6.75;;;;;;;;;;5145811;27;20054;-59
2021/12/18 06:38:10;;;;;;;18.98;5.60;;;;;;;;;;5146025;27;20083;-61
2021/12/18 06:40:36;;;;;;;18.17;5.97;;;;;;;;;;5146430;27;20043;-59
2021/12/18 06:43:02;;;;;;;17.13;5.90;;;;;;;;;;5128083;27;20081;-59
2021/12/18 06:45:28;;;;;;;21.80;5.93;;;;;;;;;;5145919;27;20076;-59
2021/12/18 06:47:55;;;;;;;16.48;7.15;;;;;;;;;;5146436;27;20073;-60
2021/12/18 06:50:21;;;;;;;22.00;6.07;;;;;;;;;;5145377;27;20071;-59
2021/12/18 06:52:47;;;;;;;11.93;4.38;;;;;;;;;;5145872;27;20051;-60
2021/12/18 06:55:14;;;;;;;11.75;4.45;;;;;;;;;;5146110;27;20039;-60
2021/12/18 06:57:40;;;;;;;20.52;4.22;;;;;;;;;;5146009;27;20105;-59
2021/12/18 07:00:08;;;;;;;14.77;4.20;;;;;;;;;;5146444;27;20054;-59
2021/12/18 07:02:34;;;;;;;14.75;3.08;;;;;;;;;;5127496;27;20094;-60
2021/12/18 07:05:00;;;;;;;13.95;3.30;;;;;;;;;;5145466;27;20047;-60
2021/12/18 07:07:26;;;;;;;13.02;2.92;;;;;;;;;;5145759;27;20035;-60
2021/12/18 07:09:52;;;;;;;11.85;4.20;;;;;;;;;;5145519;27;20120;-59
2021/12/18 07:12:18;;;;;;;10.85;3.88;;;;;;;;;;5145761;27;20099;-60
2021/12/18 07:14:44;;;;;;;14.32;3.75;;;;;;;;;;5145778;27;20043;-60
2021/12/18 07:17:11;;;;;;;12.02;3.50;;;;;;;;;;5145555;27;20043;-60
2021/12/18 07:19:37;;;;;;;9.63;4.25;;;;;;;;;;5145387;27;20117;-60
2021/12/18 07:22:03;;;;;;;10.25;3.63;;;;;;;;;;5144950;27;20414;-60
2021/12/18 07:24:29;;;;;;;14.60;4.43;;;;;;;;;;5145695;27;20122;-60
2021/12/18 07:26:56;;;;;;;10.10;3.85;;;;;;;;;;5145375;27;20522;-60
2021/12/18 07:29:22;;;;;;;11.55;3.30;;;;;;;;;;5145717;27;20035;-59
2021/12/18 07:31:49;;;;;;;15.65;4.45;;;;;;;;;;5145614;27;20216;-60
2021/12/18 07:34:15;;;;;;;17.05;3.92;;;;;;;;;;5145087;27;20072;-61
2021/12/18 07:36:41;;;;;;;9.90;3.10;;;;;;;;;;5144530;27;20057;-59
2021/12/18 07:39:07;;;;;;;10.90;4.13;;;;;;;;;;5145304;27;20050;-59
2021/12/18 07:41:33;;;;;;;11.60;3.20;;;;;;;;;;5145769;27;20043;-60
2021/12/18 07:44:00;;;;;;;14.85;4.55;;;;;;;;;;5126548;28;20058;-60
2021/12/18 07:46:26;;;;;;;14.80;4.38;;;;;;;;;;5145293;28;20039;-59
2021/12/18 07:48:52;;;;;;;15.15;4.28;;;;;;;;;;5145353;28;20156;-59
2021/12/18 07:51:18;;;;;;;12.32;4.22;;;;;;;;;;5126103;28;20055;-60
2021/12/18 07:53:44;;;;;;;9.82;3.95;;;;;;;;;;5145428;28;20410;-59
2021/12/18 07:56:10;;;;;;;12.02;3.70;;;;;;;;;;5145475;28;20036;-59
2021/12/18 07:58:37;;;;;;;14.43;4.07;;;;;;;;;;5126549;28;20072;-59
2021/12/18 08:01:03;;;;;;;14.52;3.35;;;;;;;;;;5144834;28;20463;-60
2021/12/18 08:03:30;;;;;;;12.77;3.80;;;;;;;;;;5145195;28;20039;-59
2021/12/18 08:05:56;;;;;;;11.10;4.60;;;;;;;;;;5144341;28;20039;-61
2021/12/18 08:08:22;;;;;;;11.95;4.25;;;;;;;;;;5145394;28;20043;-61
2021/12/18 08:10:48;;;;;;;13.32;3.90;;;;;;;;;;5145407;28;20087;-59
2021/12/18 08:13:14;;;;;;;13.45;4.35;;;;;;;;;;5144882;28;20039;-59
2021/12/18 08:15:41;;;;;;;11.95;2.85;;;;;;;;;;5145120;28;20043;-61
2021/12/18 08:18:07;;;;;;;11.25;2.70;;;;;;;;;;5145226;28;20053;-61
2021/12/18 08:20:37;;;;;;;13.57;3.65;;;;;;;;;;5144293;27;20099;-61
2021/12/18 08:23:03;;;;;;;12.38;2.45;;;;;;;;;;5147821;27;20100;-60
2021/12/18 08:25:30;;;;;;;8.50;2.33;;;;;;;;;;5148654;27;20051;-61
2021/12/18 08:27:59;;;;;;;7.17;1.80;;;;;;;;;;5144927;27;20046;-60
2021/12/18 08:30:26;;;;;;;11.70;2.20;;;;;;;;;;5145131;27;20031;-60
2021/12/18 08:32:52;;;;;;;9.98;1.98;;;;;;;;;;5140894;27;20047;-60
2021/12/18 08:35:18;;;;;;;8.23;1.75;;;;;;;;;;5129524;27;20088;-60
2021/12/18 08:37:44;;;;;;;4.75;1.80;;;;;;;;;;5148950;27;20075;-60
2021/12/18 08:40:11;;;;;;;20.40;2.70;;;;;;;;;;5145588;27;20085;-60
2021/12/18 08:42:37;;;;;;;5.60;2.05;;;;;;;;;;5147401;27;20058;-59
2021/12/18 08:45:04;;;;;;;10.38;2.35;;;;;;;;;;5146376;27;20130;-60
2021/12/18 08:47:30;;;;;;;5.15;2.38;;;;;;;;;;5146272;27;20043;-61
2021/12/18 08:49:56;;;;;;;13.77;2.53;;;;;;;;;;5145553;27;20042;-61
2021/12/18 08:52:22;;;;;;;7.90;2.20;;;;;;;;;;5147884;27;20100;-59
2021/12/18 08:54:48;;;;;;;12.45;2.58;;;;;;;;;;5146320;27;20043;-61
2021/12/18 08:57:15;;;;;;;10.80;2.05;;;;;;;;;;5147572;27;20047;-61
2021/12/18 08:59:41;;;;;;;17.20;3.53;;;;;;;;;;5148366;27;20075;-61
2021/12/18 09:02:08;;;;;;;10.73;2.63;;;;;;;;;;5147808;27;20173;-60
2021/12/18 09:04:34;;;;;;;9.43;2.50;;;;;;;;;;5148423;27;20047;-61
2021/12/18 09:07:01;;;;;;;6.97;2.65;;;;;;;;;;5147551;27;20050;-60
2021/12/18 09:09:27;;;;;;;11.48;3.17;;;;;;;;;;5148032;27;20340;-59
2021/12/18 09:11:53;;;;;;;11.43;3.15;;;;;;;;;;5147412;27;20070;-60
2021/12/18 09:14:19;;;;;;;7.88;2.45;;;;;;;;;;5138710;27;20440;-60
2021/12/18 09:16:45;;;;;;;13.57;3.47;;;;;;;;;;5141290;27;20039;-61
2021/12/18 09:19:12;;;;;;;17.67;4.22;;;;;;;;;;5148175;27;20140;-60
2021/12/18 09:21:38;;;;;;;12.75;4.00;;;;;;;;;;5146789;27;20043;-60
2021/12/18 09:24:04;;;;;;;11.13;3.88;;;;;;;;;;5147586;27;20043;-60
2021/12/18 09:26:31;;;;;;;14.65;3.30;;;;;;;;;;5146948;27;20401;-60
2021/12/18 09:28:57;;;;;;;15.85;3.53;;;;;;;;;;5147700;27;20098;-61
2021/12/18 09:31:24;;;;;;;15.32;4.28;;;;;;;;;;5147056;27;20047;-60
2021/12/18 09:33:51;;;;;;;9.43;4.38;;;;;;;;;;5147063;27;20051;-60
2021/12/18 09:36:17;;;;;;;15.73;4.35;;;;;;;;;;5146430;27;20050;-60
2021/12/18 09:38:43;;;;;;;11.27;4.00;;;;;;;;;;5146133;27;20096;-61
2021/12/18 09:41:09;;;;;;;15.25;5.65;;;;;;;;;;5147011;27;20045;-60
2021/12/18 09:43:36;;;;;;;13.38;5.13;;;;;;;;;;5131784;27;20043;-61
2021/12/18 09:46:04;;;;;;;14.65;5.20;;;;;;;;;;5131138;27;20062;-60
2021/12/18 09:48:30;;;;;;;;;;;;;;;;;;5147220;27;20493;-60
2021/12/18 09:50:58;;;;;;;15.48;5.65;;;;;;;;;;5145479;27;19920;-60
2021/12/18 09:53:24;;;;;;;12.57;4.90;;;;;;;;;;5144330;27;20047;-61
2021/12/18 09:55:50;;;;;;;14.25;5.00;;;;;;;;;;5147432;27;20099;-61
2021/12/18 09:58:16;;;;;;;7.13;4.25;;;;;;;;;;5147522;27;20065;-60
2021/12/18 10:00:42;;;;;;;9.60;4.22;;;;;;;;;;5142862;27;20729;-60
2021/12/18 10:03:08;;;;;;;10.73;4.28;;;;;;;;;;5140803;27;20122;-62
2021/12/18 10:05:35;;;;;;;9.82;4.25;;;;;;;;;;5138914;27;20165;-60
2021/12/18 10:08:07;;;;;;;13.30;4.88;;;;;;;;;;5142939;27;20042;-60
2021/12/18 10:10:34;;;;;;;11.73;4.30;;;;;;;;;;5140664;27;20111;-60
2021/12/18 10:13:07;;;;;;;10.38;4.25;;;;;;;;;;5144615;27;20042;-61
2021/12/18 10:15:33;;;;;;;10.27;3.92;;;;;;;;;;5142890;27;20133;-60
2021/12/18 10:18:07;;;;;;;9.57;4.28;;;;;;;;;;5143907;27;20953;-61
2021/12/18 10:20:33;;;;;;;7.85;3.75;;;;;;;;;;5139471;27;20064;-58
2021/12/18 10:23:05;;;;;;;9.13;3.28;;;;;;;;;;5145540;27;20454;-59
2021/12/18 10:25:40;;;;;;;12.77;4.85;;;;;;;;;;5143646;27;20039;-59
2021/12/18 10:28:12;;;;;;;16.65;4.72;;;;;;;;;;5145076;27;20061;-61
2021/12/18 10:30:51;;;;;;;16.80;5.25;;;;;;;;;;5144520;27;20065;-58
2021/12/18 10:33:18;;;;;;;10.13;4.07;;;;;;;;;;5144481;27;20125;-59
2021/12/18 10:35:44;;;;;;;14.25;4.18;;;;;;;;;;5140153;27;20043;-58
2021/12/18 10:38:30;;;;;;;17.77;4.63;;;;;;;;;;5142827;27;20043;-58
2021/12/18 10:40:56;;;;;;;12.45;4.50;;;;;;;;;;5140545;27;20059;-59
2021/12/18 10:43:22;;;;;;;10.15;4.32;;;;;;;;;;5145815;27;20039;-60
2021/12/18 10:45:50;;;;;;;9.57;4.50;;;;;;;;;;5142648;27;20051;-59
2021/12/18 10:48:17;;;;;;;8.88;3.60;;;;;;;;;;5144090;27;20058;-58
2021/12/18 10:50:51;;;;;;;10.88;3.67;;;;;;;;;;5139249;27;20438;-59
2021/12/18 10:53:25;;;;;;;12.88;3.50;;;;;;;;;;5121752;27;20083;-58
2021/12/18 10:55:51;;;;;;;10.93;3.53;;;;;;;;;;5140616;27;20051;-59
2021/12/18 10:58:19;;;;;;;10.32;3.20;;;;;;;;;;5141460;27;20047;-59
2021/12/18 11:00:50;;;;;;;9.25;3.33;;;;;;;;;;5144573;27;20120;-59
2021/12/18 11:03:30;;;;;;;13.57;3.20;;;;;;;;;;5145465;27;20039;-59
2021/12/18 11:06:02;;;;;;;12.23;3.45;;;;;;;;;;5145485;27;20105;-59
2021/12/18 11:08:28;;;;;;;7.05;2.80;;;;;;;;;;5139553;27;20064;-58
2021/12/18 11:13:50;;;;;;;9.15;3.00;;;;;;;;;;5141412;27;20092;-59
2021/12/18 11:16:17;;;;;;;10.32;2.88;;;;;;;;;;5144989;27;20082;-60
2021/12/18 11:18:43;;;;;;;8.02;3.05;;;;;;;;;;5139908;27;20035;-58
2021/12/18 11:21:10;;;;;;;11.73;3.17;;;;;;;;;;5142533;27;20518;-59
2021/12/18 11:23:39;;;;;;;8.68;2.60;;;;;;;;;;5144086;27;20042;-60
2021/12/18 11:26:06;;;;;;;11.60;3.47;;;;;;;;;;5140909;27;20131;-60
2021/12/18 11:28:35;;;;;;;15.73;2.95;;;;;;;;;;5143058;27;20042;-58
2021/12/18 11:31:01;;;;;;;7.63;2.65;;;;;;;;;;5121085;28;20040;-58
2021/12/18 11:33:28;;;;;;;10.63;2.70;;;;;;;;;;5142880;27;20058;-59
2021/12/18 11:35:54;;;;;;;12.52;2.30;;;;;;;;;;5141857;27;20110;-59
2021/12/18 11:38:21;;;;;;;12.85;2.60;;;;;;;;;;5139561;27;20139;-59
2021/12/18 11:40:48;;;;;;;10.13;2.20;;;;;;;;;;5138031;27;20031;-59
2021/12/18 11:43:32;;;;;;;16.95;3.60;;;;;;;;;;5141286;27;20120;-59
2021/12/18 11:45:59;;;;;;;14.95;3.00;;;;;;;;;;5142378;28;20569;-58
2021/12/18 11:48:25;;;;;;;11.50;3.22;;;;;;;;;;5125742;28;20108;-58
2021/12/18 11:50:51;;;;;;;12.77;3.08;;;;;;;;;;5142213;28;20115;-58
2021/12/18 11:53:18;;;;;;;8.82;2.47;;;;;;;;;;5141715;28;20043;-59
2021/12/18 11:55:50;;;;;;;14.73;3.40;;;;;;;;;;5142463;27;20039;-59
2021/12/18 11:58:18;;;;;;;10.43;2.63;;;;;;;;;;5146793;27;20678;-60
2021/12/18 12:00:59;;;;;;;10.32;2.45;;;;;;;;;;5137719;27;20111;-58
2021/12/18 12:03:43;;;;;;;10.93;3.13;;;;;;;;;;5144139;27;20517;-58
2021/12/18 12:06:21;;;;;;;7.18;3.13;;;;;;;;;;5143239;27;20046;-60
2021/12/18 12:08:51;;;;;;;12.75;3.08;;;;;;;;;;5143635;27;20071;-60
2021/12/18 12:11:27;;;;;;;13.02;3.40;;;;;;;;;;5146085;27;20058;-59
2021/12/18 12:14:09;;;;;;;9.35;3.15;;;;;;;;;;5145831;27;20098;-58
2021/12/18 12:16:44;;;;;;;7.95;2.97;;;;;;;;;;5127062;27;20043;-58
2021/12/18 12:19:12;;;;;;;10.13;3.22;;;;;;;;;;5140136;27;20555;-62
2021/12/18 12:21:38;;;;;;;12.85;3.50;;;;;;;;;;5144422;27;20063;-64
2021/12/18 12:24:04;;;;;;;8.35;2.67;;;;;;;;;;5145220;27;20121;-64
2021/12/18 12:26:31;;;;;;;16.70;3.47;;;;;;;;;;5146376;27;20035;-62
2021/12/18 12:28:57;;;;;;;12.57;3.40;;;;;;;;;;5146325;27;20043;-63
2021/12/18 12:31:23;;;;;;;13.30;3.15;;;;;;;;;;5146126;27;20045;-63
2021/12/18 12:33:50;;;;;;;11.57;3.40;;;;;;;;;;5142043;27;20133;-63
2021/12/18 12:36:29;;;;;;;14.65;3.58;;;;;;;;;;5146292;27;20071;-65
2021/12/18 12:38:58;;;;;;;10.20;3.72;;;;;;;;;;5142024;27;20058;-63
2021/12/18 12:41:29;;;;;;;7.90;3.33;;;;;;;;;;5145422;27;21987;-67
2021/12/18 12:44:01;;;;;;;11.35;3.25;;;;;;;;;;5125172;27;20055;-63
2021/12/18 12:46:27;;;;;;;14.05;3.28;;;;;;;;;;5144865;27;20039;-65
2021/12/18 12:48:58;;;;;;;13.07;3.22;;;;;;;;;;5145671;27;20051;-68
2021/12/18 12:51:25;;;;;;;9.88;2.97;;;;;;;;;;5128833;27;20485;-69
2021/12/18 12:53:51;;;;;;;6.57;2.92;;;;;;;;;;5116912;27;20043;-62
2021/12/18 12:56:19;;;;;;;10.52;3.25;;;;;;;;;;5144145;27;20043;-64
2021/12/18 12:58:45;;;;;;;14.48;3.95;;;;;;;;;;5146552;27;20074;-64
2021/12/18 13:01:12;;;;;;;15.27;2.90;;;;;;;;;;5145943;27;20047;-64
2021/12/18 13:03:45;;;;;;;10.07;3.15;;;;;;;;;;5143593;27;20138;-64
2021/12/18 13:06:13;;;;;;;12.07;3.40;;;;;;;;;;5145463;27;20066;-64
2021/12/18 13:08:40;;;;;;;8.40;2.50;;;;;;;;;;5117632;27;20099;-64
2021/12/18 13:11:07;;;;;;;15.10;3.28;;;;;;;;;;5144442;27;20694;-62
2021/12/18 13:13:35;;;;;;;13.07;3.13;;;;;;;;;;5138039;27;20068;-65
2021/12/18 13:16:09;;;;;;;13.82;2.92;;;;;;;;;;5142162;27;20051;-65
2021/12/18 13:18:46;;;;;;;17.65;3.92;;;;;;;;;;5140063;27;20099;-66
2021/12/18 13:21:14;;;;;;;7.65;2.83;;;;;;;;;;5142709;27;20089;-65
2021/12/18 13:23:52;;;;;;;12.40;3.22;;;;;;;;;;5140240;27;20383;-67
2021/12/18 13:26:21;;;;;;;17.85;3.22;;;;;;;;;;5142157;27;20043;-65
2021/12/18 13:29:01;;;;;;;14.20;3.92;;;;;;;;;;5145944;27;20047;-64
2021/12/18 13:31:28;;;;;;;14.35;3.38;;;;;;;;;;5140160;27;20046;-62
2021/12/18 13:33:55;;;;;;;9.35;2.70;;;;;;;;;;5144559;27;20027;-62
2021/12/18 13:36:22;;;;;;;11.05;2.65;;;;;;;;;;5140052;27;20039;-62
2021/12/18 13:38:48;;;;;;;7.32;2.40;;;;;;;;;;5143778;27;20502;-62
2021/12/18 13:41:15;;;;;;;12.45;3.40;;;;;;;;;;5143301;27;20035;-60
2021/12/18 13:43:42;;;;;;;8.57;2.60;;;;;;;;;;5134529;27;20061;-65
2021/12/18 13:46:13;;;;;;;7.72;2.83;;;;;;;;;;5144476;27;20068;-65
2021/12/18 13:48:41;;;;;;;14.38;4.03;;;;;;;;;;5139405;27;20043;-64
2021/12/18 13:51:09;;;;;;;16.75;2.83;;;;;;;;;;5138794;27;20401;-63
2021/12/18 13:53:48;;;;;;;10.45;2.55;;;;;;;;;;5143806;27;20044;-61
2021/12/18 13:56:16;;;;;;;8.82;3.72;;;;;;;;;;5135776;27;20039;-61
2021/12/18 13:58:43;;;;;;;;;;;;;;;;;;5144925;27;20559;-66
2021/12/18 14:01:13;;;;;;;10.05;2.97;;;;;;;;;;5140896;27;19920;-64
2021/12/18 14:03:45;;;;;;;10.68;2.95;;;;;;;;;;5137275;27;20068;-64
2021/12/18 14:06:17;;;;;;;8.80;2.92;;;;;;;;;;5139177;27;20499;-62
2021/12/18 14:08:44;;;;;;;16.08;3.55;;;;;;;;;;5141165;27;20031;-60
2021/12/18 14:11:13;;;;;;;10.90;2.67;;;;;;;;;;5140289;27;20039;-61
2021/12/18 14:13:43;;;;;;;8.65;2.60;;;;;;;;;;5144442;27;20042;-61
2021/12/18 14:16:10;;;;;;;16.60;3.05;;;;;;;;;;5145380;27;20252;-62
2021/12/18 14:18:47;;;;;;;13.30;3.55;;;;;;;;;;5139390;27;20047;-63
2021/12/18 14:21:13;;;;;;;8.02;2.50;;;;;;;;;;5140168;27;20042;-62
2021/12/18 14:23:40;;;;;;;7.70;3.05;;;;;;;;;;5137743;27;20506;-63
2021/12/18 14:26:12;;;;;;;10.98;3.95;;;;;;;;;;5142019;27;20039;-62
2021/12/18 14:28:38;;;;;;;10.23;2.92;;;;;;;;;;5142413;27;20036;-62
2021/12/18 14:31:22;;;;;;;9.35;3.38;;;;;;;;;;5140806;27;20064;-63
2021/12/18 14:33:53;;;;;;;10.85;3.10;;;;;;;;;;5144288;27;20099;-62
2021/12/18 14:36:37;;;;;;;10.82;2.53;;;;;;;;;;5143283;27;20049;-62
2021/12/18 14:39:04;;;;;;;9.73;2.53;;;;;;;;;;5142923;27;20099;-59
2021/12/18 14:41:32;;;;;;;8.13;1.88;;;;;;;;;;5138316;27;20425;-59
2021/12/18 14:44:01;;;;;;;14.88;2.30;;;;;;;;;;5139197;27;20062;-60
2021/12/18 14:46:28;;;;;;;12.98;3.58;;;;;;;;;;5138528;27;20540;-59
2021/12/18 14:48:55;;;;;;;12.77;3.00;;;;;;;;;;5140381;27;20053;-58
2021/12/18 14:51:25;;;;;;;6.72;2.20;;;;;;;;;;5143003;27;20047;-62
2021/12/18 14:53:58;;;;;;;7.10;2.70;;;;;;;;;;5143279;27;20055;-60
2021/12/18 14:56:24;;;;;;;15.40;4.47;;;;;;;;;;5143002;27;20031;-62
2021/12/18 14:58:50;;;;;;;10.18;3.40;;;;;;;;;;5120469;27;20108;-61
2021/12/18 15:01:20;;;;;;;9.65;2.85;;;;;;;;;;5139959;27;20032;-65
2021/12/18 15:03:48;;;;;;;12.32;2.92;;;;;;;;;;5142592;27;20119;-67
2021/12/18 15:06:17;;;;;;;10.30;3.70;;;;;;;;;;5134895;27;20114;-59
2021/12/18 15:08:59;;;;;;;11.38;3.35;;;;;;;;;;5135885;27;20542;-63
2021/12/18 15:11:28;;;;;;;19.83;4.13;;;;;;;;;;5136527;27;20035;-63
2021/12/18 15:13:56;;;;;;;7.50;2.45;;;;;;;;;;5145580;27;20039;-63
2021/12/18 15:16:27;;;;;;;6.30;2.30;;;;;;;;;;5144894;27;20053;-61
2021/12/18 15:18:54;;;;;;;10.88;2.83;;;;;;;;;;5143778;27;20051;-62
2021/12/18 15:21:20;;;;;;;6.15;2.50;;;;;;;;;;5140098;27;20050;-60
2021/12/18 15:23:47;;;;;;;11.40;2.42;;;;;;;;;;5142191;27;20024;-59
2021/12/18 15:26:13;;;;;;;7.47;2.70;;;;;;;;;;5142515;27;20042;-58
2021/12/18 15:28:40;;;;;;;13.85;3.47;;;;;;;;;;5144340;27;20122;-63
2021/12/18 15:31:06;;;;;;;6.43;2.85;;;;;;;;;;5130975;27;20047;-63